Airfield :
LOGIN :

Register | Disclaimer

   EN    FR    IT 

 










Legend :    VFR   Marginal VFR   IFR   Intensive IFR   Very Intensive IFR
Visi :
Ceiling :
>= 8 km
>= 3000ft
5 to 8 km
1000 to 3000 ft
1500m to 5 km
500 to 1000 ft
800 to 1500m
200 to 500 ft
< 800m
< 200 ft
Symbols :   Thunderstorms  Fog  Heavy snow  Heavy precipitations  Wind > 20 kt
SIGMETs :     Misc.  Thunderstorms  Icing  Turbulence  Mountain Waves  Volcanic Ashes







- Airport Elevation : 404 ft
- IATA code : WRO


EPWR - Wroclaw

CURRENT METAR :
  • 180800Z 12008KT 080V150 9999 FEW037 23/13 Q1020

EXPIRED METARs :
  • 180730Z 10007KT 060V130 CAVOK 21/13 Q1020
  • 180700Z 12007KT 090V150 CAVOK 21/14 Q1020
  • 180630Z 11007KT CAVOK 21/14 Q1020
  • 180600Z 13009KT CAVOK 19/13 Q1021
  • 180530Z 14009KT CAVOK 19/13 Q1021

TAF TAF EPWR
Valid from the 18 at 06:00 until the 19 at 06:00 UTC


180530Z 1806/1906 11007KT CAVOK
No reported NOTAMs for that airfield.



MET'MAP, your aeronautical weather chart ! - Copyright ORBIFLY December 2007 - Disclaimer

ORBIFLY MET'MAP TEAM :

Programming & Development : Alexandra Zaïnal
Concept & Development : Baudouin d'Aumeries
Co-Development & Prog : Marc-Olivier Méhu
Technical & hardware support : Manuel Goepfert

Contact : metmap@orbifly.com




SOURCES & CREDITS :

   NOAA